Time;durP1;ratioP1;P1;durP2;ratioP2;P2;SDS_P1;SDS_P2;PMS_P1;PMS_P2;Temp;Humidity;BMP_temperature;BMP_pressure;BME280_temperature;BME280_humidity;BME280_pressure;Samples;Min_cycle;Max_cycle;Signal;HPM_P1;HPM_P2
2021/12/11 00:01:19;;;;;;;49.20;29.70;;;-0.20;99.90;;;;;;5100144;28;20500;-53
2021/12/11 00:03:55;;;;;;;44.83;27.30;;;-0.10;99.90;;;;;;5099916;28;20122;-51
2021/12/11 00:06:25;;;;;;;31.00;18.67;;;-0.20;99.90;;;;;;5099726;28;20059;-50
2021/12/11 00:08:56;;;;;;;31.38;18.98;;;-0.30;99.90;;;;;;5100563;28;20040;-53
2021/12/11 00:11:27;;;;;;;27.25;15.98;;;-0.30;99.90;;;;;;5099508;28;20081;-53
2021/12/11 00:13:57;;;;;;;26.05;15.55;;;-0.40;99.90;;;;;;5100044;28;20093;-53
2021/12/11 00:16:27;;;;;;;28.30;16.38;;;-0.30;99.90;;;;;;5097816;28;20050;-54
2021/12/11 00:18:57;;;;;;;26.10;14.88;;;-0.30;99.90;;;;;;5099182;28;20044;-53
2021/12/11 00:21:26;;;;;;;25.48;15.60;;;-0.30;99.90;;;;;;5099710;28;20129;-51
2021/12/11 00:24:20;;;;;;;28.02;16.33;;;-0.30;99.90;;;;;;5098267;28;20093;-52
2021/12/11 00:26:54;;;;;;;23.48;14.45;;;-0.10;99.90;;;;;;5097863;28;20128;-54
2021/12/11 00:29:22;;;;;;;26.17;15.50;;;-0.50;99.90;;;;;;5097657;28;20036;-51
2021/12/11 00:31:52;;;;;;;23.15;13.63;;;-0.50;99.90;;;;;;5099556;28;20051;-52
2021/12/11 00:34:20;;;;;;;25.98;14.55;;;-0.50;99.90;;;;;;5099761;28;20102;-50
2021/12/11 00:36:55;;;;;;;23.10;13.57;;;-0.50;99.90;;;;;;5099125;28;20036;-52
2021/12/11 00:39:21;;;;;;;24.63;14.77;;;-0.40;99.90;;;;;;5099791;28;20040;-51
2021/12/11 00:41:53;;;;;;;22.40;13.20;;;-0.30;99.90;;;;;;5099020;28;20070;-54
2021/12/11 00:44:21;;;;;;;22.75;13.82;;;-0.30;99.90;;;;;;5099165;28;20044;-51
2021/12/11 00:46:47;;;;;;;22.95;13.38;;;-0.50;99.90;;;;;;5099050;28;20036;-49
2021/12/11 00:49:17;;;;;;;21.33;12.00;;;-0.60;99.90;;;;;;5098952;28;20048;-52
2021/12/11 00:51:53;;;;;;;22.48;12.85;;;-0.60;99.90;;;;;;5086393;28;20415;-53
2021/12/11 00:54:20;;;;;;;20.48;11.00;;;-0.60;99.90;;;;;;5078538;28;20084;-53
2021/12/11 00:56:47;;;;;;;19.80;11.77;;;-0.60;99.90;;;;;;5078810;28;20055;-51
2021/12/11 00:59:17;;;;;;;21.85;10.95;;;-0.70;99.90;;;;;;5078377;28;20072;-51
2021/12/11 01:01:58;;;;;;;19.98;10.77;;;-0.20;99.90;;;;;;5078735;28;20045;-51
2021/12/11 01:04:27;;;;;;;17.70;9.50;;;-0.70;99.90;;;;;;5077733;28;20408;-53
2021/12/11 01:07:00;;;;;;;16.48;9.55;;;-0.70;99.90;;;;;;5078294;28;20158;-52
2021/12/11 01:09:38;;;;;;;17.98;10.43;;;-0.70;99.90;;;;;;5078950;28;20178;-49
2021/12/11 01:12:15;;;;;;;18.35;9.82;;;-0.70;99.90;;;;;;5078041;28;20048;-52
2021/12/11 01:14:56;;;;;;;16.95;9.45;;;-0.70;99.90;;;;;;5078652;28;20048;-53
2021/12/11 01:17:25;;;;;;;17.03;9.60;;;-0.60;99.90;;;;;;5060664;28;20048;-52
2021/12/11 01:19:59;;;;;;;18.42;10.63;;;-0.70;99.90;;;;;;5078325;28;20071;-54
2021/12/11 01:22:33;;;;;;;17.98;10.07;;;-0.70;99.90;;;;;;5078667;28;20080;-51
2021/12/11 01:25:15;;;;;;;18.38;10.80;;;-0.80;99.90;;;;;;5078016;28;20044;-52
2021/12/11 01:27:46;;;;;;;17.83;9.77;;;-0.70;99.90;;;;;;5078212;28;20147;-51
2021/12/11 01:30:20;;;;;;;17.23;10.15;;;-0.80;99.90;;;;;;5078786;28;20108;-52
2021/12/11 01:32:46;;;;;;;17.15;9.77;;;-0.80;99.90;;;;;;5078026;28;20033;-54
2021/12/11 01:35:14;;;;;;;16.90;10.52;;;-0.70;99.90;;;;;;5078533;28;20084;-54
2021/12/11 01:37:40;;;;;;;18.75;10.30;;;-0.80;99.90;;;;;;5077661;28;20044;-52
2021/12/11 01:40:09;;;;;;;19.27;10.80;;;-0.80;99.90;;;;;;5076972;28;20041;-52
2021/12/11 01:42:36;;;;;;;20.65;11.60;;;-0.80;99.90;;;;;;5077933;28;20080;-53
2021/12/11 01:45:05;;;;;;;18.45;10.35;;;-1.00;99.90;;;;;;5078369;28;20192;-53
2021/12/11 01:47:34;;;;;;;18.58;10.32;;;-0.90;99.90;;;;;;5078508;28;20049;-53
2021/12/11 01:50:23;;;;;;;20.77;11.00;;;-0.90;99.90;;;;;;5076503;28;20503;-54
2021/12/11 01:52:57;;;;;;;21.73;10.82;;;-0.90;99.90;;;;;;5058167;28;20529;-53
2021/12/11 01:55:38;;;;;;;20.73;11.70;;;-0.90;99.90;;;;;;5040059;28;20080;-51
2021/12/11 01:58:09;;;;;;;20.75;12.02;;;-0.80;99.90;;;;;;5057714;28;20501;-50
2021/12/11 02:00:46;;;;;;;20.60;12.02;;;-0.80;99.90;;;;;;5058442;28;20052;-49
2021/12/11 02:03:16;;;;;;;22.60;11.73;;;-0.80;99.90;;;;;;5057527;28;20055;-50
2021/12/11 02:05:42;;;;;;;18.90;11.43;;;-0.80;99.90;;;;;;5058168;28;20067;-50
2021/12/11 02:08:16;;;;;;;19.20;11.88;;;-0.80;99.90;;;;;;5057580;28;20045;-49
2021/12/11 02:10:56;;;;;;;23.00;12.95;;;-0.90;99.90;;;;;;5057928;28;20049;-53
2021/12/11 02:13:38;;;;;;;19.90;11.75;;;-0.90;99.90;;;;;;5057787;28;20049;-53
2021/12/11 02:16:06;;;;;;;23.58;12.07;;;-1.00;99.90;;;;;;5057621;28;20057;-51
2021/12/11 02:18:36;;;;;;;22.73;12.10;;;-1.00;99.90;;;;;;5057931;28;20163;-53
2021/12/11 02:21:10;;;;;;;22.50;11.32;;;-1.10;99.90;;;;;;5056211;28;20048;-48
2021/12/11 02:23:36;;;;;;;23.38;13.57;;;-1.10;99.90;;;;;;5057679;28;20128;-52
2021/12/11 02:26:10;;;;;;;23.40;12.35;;;-0.90;99.90;;;;;;5058271;28;20148;-49
2021/12/11 02:28:51;;;;;;;26.40;14.05;;;-0.90;99.90;;;;;;5057471;28;20041;-52
2021/12/11 02:31:42;;;;;;;23.88;13.32;;;-0.90;99.90;;;;;;5057950;28;20041;-52
2021/12/11 02:34:18;;;;;;;22.58;12.90;;;-1.00;99.90;;;;;;5057956;28;20045;-53
2021/12/11 02:36:53;;;;;;;26.05;14.75;;;-1.00;99.90;;;;;;5056192;28;20214;-52
2021/12/11 02:39:28;;;;;;;27.98;13.63;;;-0.90;99.90;;;;;;5057965;28;20056;-50
2021/12/11 02:42:00;;;;;;;25.38;13.18;;;-0.90;99.90;;;;;;5058541;28;20045;-52
2021/12/11 02:44:31;;;;;;;28.83;15.20;;;-0.80;99.90;;;;;;5061188;28;20112;-52
2021/12/11 02:47:07;;;;;;;26.73;15.15;;;-0.70;99.90;;;;;;5061399;28;20052;-49
2021/12/11 02:49:36;;;;;;;31.42;16.70;;;-0.70;99.90;;;;;;5061006;28;20433;-51
2021/12/11 02:52:08;;;;;;;29.75;15.88;;;-0.60;99.90;;;;;;5090406;28;20048;-50
2021/12/11 02:54:52;;;;;;;29.65;16.83;;;-0.60;99.90;;;;;;5100951;28;20059;-49
2021/12/11 02:57:26;;;;;;;25.77;15.20;;;-0.70;99.90;;;;;;5101458;28;20040;-51
2021/12/11 02:59:53;;;;;;;26.45;14.52;;;-0.80;99.90;;;;;;5101376;28;20063;-51
2021/12/11 03:02:26;;;;;;;24.65;14.68;;;-0.70;99.90;;;;;;5101200;28;20055;-50
2021/12/11 03:05:06;;;;;;;27.00;14.57;;;-0.80;99.90;;;;;;5101474;28;20040;-53
2021/12/11 03:07:37;;;;;;;26.42;14.15;;;-0.80;99.90;;;;;;5100758;28;20044;-52
2021/12/11 03:10:11;;;;;;;25.98;13.88;;;-0.80;99.90;;;;;;5101307;28;20040;-52
2021/12/11 03:12:37;;;;;;;25.55;13.68;;;-1.00;99.90;;;;;;5100963;28;20040;-50
2021/12/11 03:15:06;;;;;;;24.15;14.13;;;-1.00;99.90;;;;;;5100887;28;20048;-51
2021/12/11 03:17:32;;;;;;;29.08;14.95;;;-0.90;99.90;;;;;;5101410;28;20044;-52
2021/12/11 03:19:57;;;;;;;25.52;14.43;;;-1.00;99.90;;;;;;5100462;28;20043;-53
2021/12/11 03:22:30;;;;;;;26.15;14.13;;;-1.00;99.90;;;;;;5101201;28;20111;-52
2021/12/11 03:24:59;;;;;;;23.67;13.80;;;-1.00;99.90;;;;;;5100408;28;20036;-49
2021/12/11 03:27:25;;;;;;;25.80;14.13;;;-1.10;99.90;;;;;;5100867;28;20040;-52
2021/12/11 03:29:51;;;;;;;26.95;15.55;;;-1.10;99.90;;;;;;5100814;28;20352;-47
2021/12/11 03:32:18;;;;;;;26.05;14.32;;;-1.10;99.90;;;;;;5100887;28;20059;-51
2021/12/11 03:34:46;;;;;;;26.67;14.70;;;-1.00;99.90;;;;;;5101035;28;20052;-51
2021/12/11 03:37:14;;;;;;;28.45;15.45;;;-1.10;99.90;;;;;;5100199;28;20058;-49
2021/12/11 03:39:43;;;;;;;28.25;15.88;;;-1.10;99.90;;;;;;5100514;28;20040;-50
2021/12/11 03:42:18;;;;;;;29.33;17.02;;;-1.10;99.90;;;;;;5098784;28;20043;-51
2021/12/11 03:44:45;;;;;;;30.67;18.23;;;-1.20;99.90;;;;;;5099070;28;20447;-50
2021/12/11 03:47:17;;;;;;;32.15;17.80;;;-1.00;99.90;;;;;;5099209;28;20048;-51
2021/12/11 03:49:43;;;;;;;32.78;18.08;;;-0.80;99.90;;;;;;5099931;28;20056;-53
2021/12/11 03:52:12;;;;;;;36.42;20.05;;;-0.80;99.90;;;;;;5085092;28;20050;-52
2021/12/11 03:54:41;;;;;;;36.10;19.60;;;-0.80;99.90;;;;;;5078709;28;20040;-53
2021/12/11 03:57:10;;;;;;;36.25;19.20;;;-0.70;99.90;;;;;;5080264;28;20064;-53
2021/12/11 03:59:37;;;;;;;34.38;19.65;;;-0.70;99.90;;;;;;5079825;28;20047;-51
2021/12/11 04:02:10;;;;;;;33.22;18.27;;;-0.70;99.90;;;;;;5079958;28;20041;-53
2021/12/11 04:05:06;;;;;;;32.63;18.85;;;-0.90;99.90;;;;;;5080481;28;20631;-51
2021/12/11 04:07:37;;;;;;;32.55;18.58;;;-0.90;99.90;;;;;;5077615;28;20075;-51
2021/12/11 04:10:08;;;;;;;33.13;18.48;;;-1.00;99.90;;;;;;5079643;28;20055;-54
2021/12/11 04:12:34;;;;;;;33.17;19.90;;;-0.90;99.90;;;;;;5079736;28;20116;-53
2021/12/11 04:14:59;;;;;;;32.13;18.10;;;-0.90;99.90;;;;;;5079562;28;20072;-51
2021/12/11 04:17:27;;;;;;;33.05;17.42;;;-0.90;99.90;;;;;;5079991;28;20044;-53
2021/12/11 04:19:57;;;;;;;31.85;17.83;;;-1.00;99.90;;;;;;5079389;28;20051;-51
2021/12/11 04:22:24;;;;;;;34.35;17.88;;;-0.90;99.90;;;;;;5079645;28;20045;-54
2021/12/11 04:24:50;;;;;;;35.65;18.20;;;-1.00;99.90;;;;;;5078866;28;20048;-51
2021/12/11 04:27:18;;;;;;;31.95;16.65;;;-1.00;99.90;;;;;;5079525;28;20048;-54
2021/12/11 04:29:48;;;;;;;28.88;15.80;;;-1.00;99.90;;;;;;5079437;28;20051;-54
2021/12/11 04:32:14;;;;;;;32.15;17.60;;;-1.00;99.90;;;;;;5079466;28;20052;-52
2021/12/11 04:34:40;;;;;;;31.65;17.83;;;-1.10;99.90;;;;;;5079687;28;20051;-52
2021/12/11 04:37:13;;;;;;;31.73;17.13;;;-1.00;99.90;;;;;;5078622;28;20048;-50
2021/12/11 04:39:41;;;;;;;;;;;-1.10;99.90;;;;;;5079770;28;20049;-52
2021/12/11 04:42:20;;;;;;;27.80;15.57;;;-1.10;99.90;;;;;;5078739;28;19927;-52
2021/12/11 04:44:47;;;;;;;32.13;16.60;;;-1.10;99.90;;;;;;5078855;28;20037;-52
2021/12/11 04:47:29;;;;;;;37.42;20.33;;;-1.10;99.90;;;;;;5079401;28;20096;-51
2021/12/11 04:50:00;;;;;;;34.20;18.55;;;-1.10;99.90;;;;;;5078326;28;20036;-51
2021/12/11 04:52:51;;;;;;;37.28;18.13;;;-1.10;99.90;;;;;;5096842;28;20055;-53
2021/12/11 04:58:11;;;;;;;34.83;18.40;;;-1.20;99.90;;;;;;5098927;28;20074;-52
2021/12/11 05:03:59;;;;;;;31.75;16.67;;;-1.10;99.90;;;;;;5098620;28;20103;-52
2021/12/11 05:06:40;;;;;;;31.45;17.33;;;-1.10;99.90;;;;;;5098408;28;20075;-51
2021/12/11 05:09:22;;;;;;;29.15;16.80;;;-1.10;99.90;;;;;;5099242;28;20051;-50
2021/12/11 05:12:34;;;;;;;30.13;16.55;;;-1.10;99.90;;;;;;5098567;28;20028;-53
2021/12/11 05:15:08;;;;;;;29.17;18.10;;;-1.10;99.90;;;;;;5098772;28;20044;-49
2021/12/11 05:17:35;;;;;;;34.53;17.73;;;-1.10;99.90;;;;;;5099177;28;20040;-52
2021/12/11 05:20:03;;;;;;;40.95;20.63;;;-1.00;99.90;;;;;;5098330;28;20062;-49
2021/12/11 05:22:29;;;;;;;34.30;18.90;;;-0.90;99.90;;;;;;5099021;28;20711;-49
2021/12/11 05:24:57;;;;;;;33.22;17.52;;;-1.00;99.90;;;;;;5098197;28;20039;-50
2021/12/11 05:27:23;;;;;;;33.05;17.73;;;-1.00;99.90;;;;;;5098637;28;20048;-50
2021/12/11 05:29:50;;;;;;;30.63;16.25;;;-1.10;99.90;;;;;;5098812;28;20090;-49
2021/12/11 05:32:20;;;;;;;30.25;17.60;;;-1.10;99.90;;;;;;5098457;28;20102;-50
2021/12/11 05:34:46;;;;;;;32.25;17.92;;;-1.00;99.90;;;;;;5098881;28;20039;-52
2021/12/11 05:37:12;;;;;;;30.33;17.02;;;-1.00;99.90;;;;;;5098065;28;20052;-49
2021/12/11 05:39:39;;;;;;;31.70;18.25;;;-1.00;99.90;;;;;;5098648;28;20040;-51
2021/12/11 05:42:05;;;;;;;33.35;19.08;;;-1.00;99.90;;;;;;5098127;28;20050;-53
2021/12/11 05:44:31;;;;;;;29.77;18.63;;;-1.00;99.90;;;;;;5098830;28;20434;-52
2021/12/11 05:46:57;;;;;;;32.30;17.95;;;-1.00;99.90;;;;;;5098499;28;20092;-52
2021/12/11 05:49:25;;;;;;;32.55;17.98;;;-1.00;99.90;;;;;;5098169;28;20051;-52
2021/12/11 05:51:51;;;;;;;32.20;18.90;;;-0.90;99.90;;;;;;5085718;28;20570;-52
2021/12/11 05:54:23;;;;;;;32.10;17.35;;;-1.00;99.90;;;;;;5077772;28;20036;-50
2021/12/11 05:56:53;;;;;;;32.97;17.87;;;-1.00;99.90;;;;;;5078185;28;20052;-50
2021/12/11 05:59:19;;;;;;;31.10;18.58;;;-1.10;99.90;;;;;;5077772;28;20051;-50
2021/12/11 06:01:49;;;;;;;29.98;18.23;;;-1.10;99.90;;;;;;5076739;28;20044;-50
2021/12/11 06:04:20;;;;;;;36.00;19.48;;;-1.10;99.90;;;;;;5078429;28;20045;-50
2021/12/11 06:06:47;;;;;;;36.67;18.92;;;-1.10;99.90;;;;;;5077798;28;20045;-53
2021/12/11 06:09:15;;;;;;;33.47;19.45;;;-1.10;99.90;;;;;;5078226;28;20036;-50
2021/12/11 06:11:44;;;;;;;32.25;18.33;;;-1.10;99.90;;;;;;5077278;28;20577;-52
2021/12/11 06:14:10;;;;;;;32.08;17.92;;;-1.10;99.90;;;;;;5077842;28;20053;-52
2021/12/11 06:16:36;;;;;;;32.30;19.17;;;-1.10;99.90;;;;;;5078711;28;20063;-50
2021/12/11 06:19:05;;;;;;;37.00;19.45;;;-1.10;99.90;;;;;;5080372;28;20496;-51
2021/12/11 06:21:33;;;;;;;32.42;19.10;;;-1.10;99.90;;;;;;5082168;28;20072;-50
2021/12/11 06:23:59;;;;;;;31.95;18.08;;;-1.20;99.90;;;;;;5081377;28;20511;-52
2021/12/11 06:26:25;;;;;;;32.30;18.45;;;-1.20;99.90;;;;;;5081940;28;20058;-52
2021/12/11 06:28:51;;;;;;;29.65;17.08;;;-1.20;99.90;;;;;;5081293;28;20059;-49
2021/12/11 06:31:19;;;;;;;34.78;19.23;;;-1.20;99.90;;;;;;5081693;28;20064;-53
2021/12/11 06:33:48;;;;;;;30.52;17.77;;;-1.20;99.90;;;;;;5079948;28;20056;-52
2021/12/11 06:36:15;;;;;;;31.05;17.75;;;-1.20;99.90;;;;;;5081540;28;20103;-53
2021/12/11 06:38:43;;;;;;;35.80;19.48;;;-1.20;99.90;;;;;;5081764;28;20076;-51
2021/12/11 06:41:12;;;;;;;33.13;17.45;;;-1.30;99.90;;;;;;5081154;28;20075;-48
2021/12/11 06:43:39;;;;;;;33.63;18.30;;;-1.30;99.90;;;;;;5081389;28;20075;-55
2021/12/11 06:46:06;;;;;;;32.33;18.40;;;-1.20;99.90;;;;;;5079412;28;20052;-52
2021/12/11 06:48:32;;;;;;;34.55;19.10;;;-1.30;99.90;;;;;;5081217;28;20071;-51
2021/12/11 06:51:00;;;;;;;36.97;18.60;;;-1.20;99.90;;;;;;5086798;28;20123;-51
2021/12/11 06:53:46;;;;;;;36.92;19.20;;;-1.10;99.90;;;;;;5099963;28;20176;-50
2021/12/11 06:56:14;;;;;;;35.92;19.55;;;-1.10;99.90;;;;;;5100598;28;20476;-51
2021/12/11 06:58:40;;;;;;;37.50;19.67;;;-1.10;99.90;;;;;;5100939;28;20040;-52
2021/12/11 07:01:08;;;;;;;33.65;19.30;;;-1.20;99.90;;;;;;5101456;28;20053;-48
2021/12/11 07:03:35;;;;;;;36.42;18.63;;;-1.20;99.90;;;;;;5099580;28;20119;-52
2021/12/11 07:06:01;;;;;;;43.13;21.55;;;-1.30;99.90;;;;;;5101296;28;20070;-50
2021/12/11 07:08:29;;;;;;;36.55;19.55;;;-1.30;99.90;;;;;;5101318;28;20040;-50
2021/12/11 07:10:54;;;;;;;35.33;19.85;;;-1.20;99.90;;;;;;5101146;28;20047;-51
2021/12/11 07:13:21;;;;;;;40.15;19.88;;;-1.20;99.90;;;;;;5101113;28;20076;-51
2021/12/11 07:15:46;;;;;;;35.28;19.92;;;-0.70;99.90;;;;;;5100874;28;20040;-52
2021/12/11 07:18:12;;;;;;;33.30;19.08;;;-1.30;99.90;;;;;;5082829;28;20532;-50
2021/12/11 07:20:38;;;;;;;34.58;20.10;;;-1.30;99.90;;;;;;5100493;28;20082;-50
2021/12/11 07:23:05;;;;;;;36.88;20.60;;;-1.30;99.90;;;;;;5100966;28;20044;-52
2021/12/11 07:25:47;;;;;;;38.50;21.25;;;-1.30;99.90;;;;;;5099611;28;20058;-52
2021/12/11 07:28:13;;;;;;;37.50;21.98;;;-1.20;99.90;;;;;;5100644;28;20040;-50
2021/12/11 07:30:42;;;;;;;37.13;20.98;;;-1.20;99.90;;;;;;5099469;28;20548;-52
2021/12/11 07:33:09;;;;;;;37.83;21.52;;;-1.20;99.90;;;;;;5100215;28;20040;-52
2021/12/11 07:35:38;;;;;;;35.67;20.17;;;-1.10;99.90;;;;;;5100902;28;20044;-49
2021/12/11 07:38:04;;;;;;;36.35;20.70;;;-1.10;99.90;;;;;;5100410;28;20044;-53
2021/12/11 07:40:43;;;;;;;36.60;21.60;;;-1.10;99.90;;;;;;5099394;28;20569;-54
2021/12/11 07:43:11;;;;;;;35.25;19.70;;;-1.10;99.90;;;;;;5100581;28;20476;-51
2021/12/11 07:45:38;;;;;;;35.05;19.85;;;-1.00;99.90;;;;;;5081753;28;20028;-49
2021/12/11 07:48:05;;;;;;;35.28;21.13;;;-1.00;99.90;;;;;;5099102;28;20059;-51
2021/12/11 07:50:31;;;;;;;35.80;21.25;;;-1.00;99.90;;;;;;5096661;28;20048;-53
2021/12/11 07:52:58;;;;;;;36.63;21.02;;;-1.00;99.90;;;;;;5079797;28;20051;-54
2021/12/11 07:55:24;;;;;;;37.08;21.55;;;-1.00;99.90;;;;;;5080289;28;20400;-53
2021/12/11 07:57:51;;;;;;;39.97;21.90;;;-0.90;99.90;;;;;;5079810;28;20056;-52
2021/12/11 08:00:20;;;;;;;37.92;21.65;;;-1.00;99.90;;;;;;5080225;28;20044;-50
2021/12/11 08:02:47;;;;;;;35.92;20.73;;;-1.00;99.90;;;;;;5079406;28;20044;-53
2021/12/11 08:05:14;;;;;;;40.90;21.80;;;-1.00;99.90;;;;;;5079957;28;20505;-53
2021/12/11 08:07:40;;;;;;;36.03;21.27;;;-1.00;99.90;;;;;;5079089;28;20047;-50
2021/12/11 08:10:09;;;;;;;39.72;21.10;;;-1.00;99.90;;;;;;5079845;28;20036;-52
2021/12/11 08:12:35;;;;;;;38.28;20.23;;;-0.90;99.90;;;;;;5078352;28;20072;-53
2021/12/11 08:15:03;;;;;;;41.90;21.70;;;-0.90;99.90;;;;;;5079658;28;20048;-51
2021/12/11 08:17:29;;;;;;;36.65;20.90;;;-1.00;99.90;;;;;;5079985;28;20045;-51
2021/12/11 08:19:54;;;;;;;40.10;20.67;;;-0.90;99.90;;;;;;5079247;28;20072;-50
2021/12/11 08:22:21;;;;;;;39.03;24.27;;;-0.90;99.90;;;;;;5079709;28;20075;-55
2021/12/11 08:24:47;;;;;;;44.50;24.08;;;-0.90;99.90;;;;;;5078924;28;20040;-50
2021/12/11 08:27:17;;;;;;;43.92;25.42;;;-0.90;99.90;;;;;;5079512;28;20645;-50
2021/12/11 08:29:45;;;;;;;43.60;23.33;;;-0.90;99.90;;;;;;5079430;28;20048;-52
2021/12/11 08:32:11;;;;;;;44.47;23.02;;;-0.80;99.90;;;;;;5079376;28;20618;-53
2021/12/11 08:34:38;;;;;;;39.22;22.77;;;-0.70;99.90;;;;;;5079574;28;20488;-50
2021/12/11 08:37:08;;;;;;;41.70;22.45;;;-0.70;99.90;;;;;;5078892;28;20657;-52
2021/12/11 08:39:35;;;;;;;37.92;22.70;;;-0.80;99.90;;;;;;5078640;28;20063;-53
2021/12/11 08:42:03;;;;;;;40.25;22.35;;;-0.80;99.90;;;;;;5077268;28;20040;-50
2021/12/11 08:44:35;;;;;;;43.42;23.70;;;-0.70;99.90;;;;;;5078888;28;20068;-52
2021/12/11 08:47:07;;;;;;;42.65;23.88;;;-0.70;99.90;;;;;;5079344;28;20044;-50
2021/12/11 08:49:35;;;;;;;44.20;24.33;;;-0.70;99.90;;;;;;5078552;28;20084;-50
2021/12/11 08:52:13;;;;;;;44.70;25.95;;;-0.60;99.90;;;;;;5093786;28;20048;-53
2021/12/11 08:54:39;;;;;;;45.28;25.70;;;-0.60;99.90;;;;;;5098552;28;20054;-51
2021/12/11 08:57:09;;;;;;;40.88;23.33;;;-0.60;99.90;;;;;;5099197;28;20032;-49
2021/12/11 08:59:38;;;;;;;47.20;24.98;;;-0.50;99.90;;;;;;5097567;28;20511;-50
2021/12/11 09:02:15;;;;;;;45.65;23.00;;;-0.50;99.90;;;;;;5098956;28;20039;-51
2021/12/11 09:04:50;;;;;;;40.80;22.63;;;-0.40;99.90;;;;;;5099414;28;20063;-48
2021/12/11 09:07:21;;;;;;;42.83;25.25;;;-0.40;99.90;;;;;;5098761;28;20141;-53
2021/12/11 09:09:59;;;;;;;42.30;24.02;;;-0.40;99.90;;;;;;5099011;28;20491;-53
2021/12/11 09:12:31;;;;;;;46.00;24.95;;;-0.40;99.90;;;;;;5098918;28;20044;-52
2021/12/11 09:15:05;;;;;;;42.08;23.90;;;-0.40;99.90;;;;;;5098729;28;20040;-50
2021/12/11 09:17:36;;;;;;;43.13;24.15;;;-0.30;99.90;;;;;;5099154;28;20109;-53
2021/12/11 09:20:28;;;;;;;41.07;24.37;;;-0.30;99.90;;;;;;5098422;28;20071;-52
2021/12/11 09:23:02;;;;;;;47.58;26.02;;;-0.10;99.90;;;;;;5091740;28;20052;-52
2021/12/11 09:25:31;;;;;;;46.38;25.80;;;-0.10;99.90;;;;;;5097072;28;20055;-52
2021/12/11 09:28:24;;;;;;;48.15;27.10;;;-0.10;99.90;;;;;;5098539;28;20039;-50
2021/12/11 09:30:59;;;;;;;48.38;26.05;;;0.00;99.90;;;;;;5098702;28;20052;-50
2021/12/11 09:33:32;;;;;;;51.60;28.20;;;0.00;99.90;;;;;;5098390;28;20044;-51
2021/12/11 09:36:10;;;;;;;44.40;24.50;;;0.10;99.90;;;;;;5098705;28;20516;-51
2021/12/11 09:38:43;;;;;;;45.28;25.40;;;0.20;99.90;;;;;;5097509;28;20048;-51
2021/12/11 09:41:21;;;;;;;47.00;25.10;;;0.20;99.90;;;;;;5098189;28;20050;-52
2021/12/11 09:43:49;;;;;;;45.15;26.15;;;0.20;99.90;;;;;;5098393;28;20043;-51
2021/12/11 09:46:24;;;;;;;46.15;26.35;;;0.30;99.90;;;;;;5097961;28;20036;-51
2021/12/11 09:48:54;;;;;;;47.40;26.00;;;0.30;99.90;;;;;;5098241;28;20106;-50
2021/12/11 09:51:25;;;;;;;47.30;24.77;;;0.30;99.90;;;;;;5092291;28;20040;-48
2021/12/11 09:53:55;;;;;;;48.10;26.67;;;0.30;99.90;;;;;;5080826;28;20041;-53
2021/12/11 09:56:44;;;;;;;52.90;27.17;;;0.30;99.90;;;;;;5082715;28;20428;-51
2021/12/11 09:59:12;;;;;;;49.28;27.25;;;0.40;99.90;;;;;;5080508;28;20048;-51
2021/12/11 10:01:42;;;;;;;55.00;27.73;;;0.50;99.90;;;;;;5082350;28;20100;-53
2021/12/11 10:04:16;;;;;;;49.88;25.95;;;0.40;99.90;;;;;;5082295;28;20045;-52
2021/12/11 10:07:23;;;;;;;48.25;25.75;;;0.50;99.90;;;;;;5081923;28;20043;-50
2021/12/11 10:09:43;;;;;;;50.72;27.50;;;0.50;99.90;;;;;;5081989;28;20052;-52
2021/12/11 10:12:35;;;;;;;45.00;24.83;;;0.60;99.90;;;;;;5081920;28;20044;-53
2021/12/11 10:15:06;;;;;;;44.50;25.52;;;0.60;99.90;;;;;;5081932;28;20291;-53
2021/12/11 10:17:39;;;;;;;47.97;25.77;;;0.70;99.90;;;;;;5082420;28;20479;-53
2021/12/11 10:20:12;;;;;;;48.55;26.08;;;0.80;99.90;;;;;;5081606;28;20043;-51
2021/12/11 10:22:40;;;;;;;45.80;24.65;;;0.80;99.90;;;;;;5081924;28;20048;-52
2021/12/11 10:25:12;;;;;;;46.97;26.20;;;0.80;99.90;;;;;;5081401;28;20040;-52
2021/12/11 10:27:38;;;;;;;48.72;26.55;;;0.90;99.90;;;;;;5081569;28;20036;-52
2021/12/11 10:30:07;;;;;;;50.83;26.92;;;0.90;99.90;;;;;;5082111;28;20048;-53
2021/12/11 10:32:33;;;;;;;53.05;28.52;;;1.00;99.90;;;;;;5081438;28;20094;-52
2021/12/11 10:35:06;;;;;;;50.25;27.65;;;1.10;99.90;;;;;;5082021;28;20100;-53
2021/12/11 10:37:36;;;;;;;47.75;25.67;;;1.20;99.90;;;;;;5081026;28;20050;-49
2021/12/11 10:40:11;;;;;;;53.83;28.23;;;1.30;99.90;;;;;;5081512;28;20040;-53
2021/12/11 10:42:37;;;;;;;47.30;26.35;;;1.40;99.90;;;;;;5081479;28;20069;-49
2021/12/11 10:45:07;;;;;;;47.67;25.08;;;1.40;99.90;;;;;;5081149;28;20048;-50
2021/12/11 10:47:48;;;;;;;45.30;24.95;;;1.40;99.90;;;;;;5081803;28;20052;-53
2021/12/11 10:50:34;;;;;;;46.03;25.35;;;1.40;99.90;;;;;;5079070;28;20120;-52
2021/12/11 10:53:01;;;;;;;47.85;24.52;;;1.40;99.90;;;;;;5060837;28;20060;-52
2021/12/11 10:55:30;;;;;;;48.25;25.20;;;1.40;99.90;;;;;;5061243;28;20073;-53
2021/12/11 10:57:59;;;;;;;45.15;22.98;;;1.40;99.90;;;;;;5061023;28;20086;-51
2021/12/11 11:00:36;;;;;;;43.45;23.95;;;1.50;99.90;;;;;;5061212;28;20044;-52
2021/12/11 11:03:06;;;;;;;48.53;24.85;;;1.60;99.90;;;;;;5060077;28;20044;-52
2021/12/11 11:05:32;;;;;;;43.08;24.17;;;1.60;99.90;;;;;;5061104;28;20065;-53
2021/12/11 11:07:58;;;;;;;46.80;24.98;;;1.70;99.90;;;;;;5060765;28;20049;-52
2021/12/11 11:10:30;;;;;;;41.40;24.05;;;1.80;99.90;;;;;;5060923;28;20057;-53
2021/12/11 11:12:58;;;;;;;41.80;22.63;;;1.80;99.90;;;;;;5060989;28;20046;-49
2021/12/11 11:15:25;;;;;;;38.83;21.88;;;1.90;99.90;;;;;;5060709;28;20045;-53
2021/12/11 11:17:52;;;;;;;41.20;21.13;;;1.90;99.90;;;;;;5060970;28;20070;-53
2021/12/11 11:20:29;;;;;;;37.58;20.70;;;1.90;99.90;;;;;;5060039;28;20045;-53
2021/12/11 11:22:55;;;;;;;33.08;19.80;;;1.90;99.90;;;;;;5060874;28;20037;-52
2021/12/11 11:25:28;;;;;;;37.75;21.38;;;1.90;99.90;;;;;;5060824;28;20144;-53
2021/12/11 11:28:00;;;;;;;40.47;21.55;;;1.90;99.90;;;;;;5060534;28;20045;-50
2021/12/11 11:30:38;;;;;;;37.13;21.33;;;1.90;99.90;;;;;;5060895;28;20041;-53
2021/12/11 11:33:07;;;;;;;35.33;19.95;;;1.90;99.90;;;;;;5059926;28;20057;-51
2021/12/11 11:35:38;;;;;;;39.60;20.27;;;1.90;99.90;;;;;;5059138;28;20045;-50
2021/12/11 11:38:05;;;;;;;39.67;21.20;;;2.00;99.90;;;;;;5060646;28;20044;-49
2021/12/11 11:40:37;;;;;;;36.95;21.60;;;1.90;99.90;;;;;;5060348;28;20037;-53
2021/12/11 11:43:04;;;;;;;39.40;22.10;;;2.00;99.90;;;;;;5060414;28;20041;-51
2021/12/11 11:45:30;;;;;;;38.15;20.88;;;2.00;99.90;;;;;;5058663;28;20053;-54
2021/12/11 11:47:56;;;;;;;34.85;19.67;;;2.00;99.90;;;;;;5060534;28;20045;-50
2021/12/11 11:50:27;;;;;;;38.80;22.25;;;2.00;99.90;;;;;;5060886;28;20068;-51
2021/12/11 11:52:54;;;;;;;38.70;22.20;;;2.00;99.90;;;;;;5100527;28;20056;-51
2021/12/11 11:55:26;;;;;;;33.88;20.35;;;2.00;99.90;;;;;;5100490;28;20036;-49
2021/12/11 11:57:54;;;;;;;35.67;19.95;;;2.00;99.90;;;;;;5100106;28;20044;-49
2021/12/11 12:00:26;;;;;;;37.25;20.10;;;2.00;99.90;;;;;;5100558;28;20047;-48
2021/12/11 12:02:53;;;;;;;33.58;19.00;;;1.90;99.90;;;;;;5099863;28;20079;-49
2021/12/11 12:05:20;;;;;;;35.47;19.73;;;1.90;99.90;;;;;;5100306;28;20051;-52
2021/12/11 12:07:46;;;;;;;39.70;21.80;;;2.00;99.90;;;;;;5099530;28;20519;-52
2021/12/11 12:10:26;;;;;;;36.50;21.13;;;2.00;99.90;;;;;;5100153;28;20115;-49
2021/12/11 12:12:54;;;;;;;41.83;21.42;;;2.20;99.90;;;;;;5100209;28;20075;-51
2021/12/11 12:15:31;;;;;;;36.30;21.90;;;2.30;99.90;;;;;;5098681;28;20043;-52
2021/12/11 12:17:57;;;;;;;33.97;19.98;;;2.40;99.90;;;;;;5100070;28;20097;-50
2021/12/11 12:20:24;;;;;;;36.67;20.83;;;2.40;99.90;;;;;;5099493;28;20070;-52
2021/12/11 12:22:53;;;;;;;35.47;20.17;;;2.40;99.90;;;;;;5099759;28;20403;-52
2021/12/11 12:25:19;;;;;;;33.15;20.25;;;2.40;99.90;;;;;;5099854;28;20055;-50
2021/12/11 12:27:45;;;;;;;37.28;20.45;;;2.90;99.90;;;;;;5099654;28;20036;-50
2021/12/11 12:30:23;;;;;;;33.30;20.80;;;2.40;99.90;;;;;;5099987;28;20036;-51
2021/12/11 12:32:51;;;;;;;36.38;20.10;;;2.40;99.90;;;;;;5099334;28;20070;-50
2021/12/11 12:35:19;;;;;;;40.53;21.60;;;2.40;99.90;;;;;;5099707;28;20073;-51
2021/12/11 12:37:46;;;;;;;40.42;21.90;;;2.50;99.90;;;;;;5097695;28;20490;-50
2021/12/11 12:40:27;;;;;;;37.50;20.40;;;2.50;99.90;;;;;;5098244;28;20400;-50
2021/12/11 12:43:04;;;;;;;33.88;20.65;;;2.50;99.90;;;;;;5099630;28;20040;-48
2021/12/11 12:45:35;;;;;;;32.55;19.20;;;2.40;99.90;;;;;;5099410;28;20067;-53
2021/12/11 12:48:07;;;;;;;36.40;20.60;;;2.40;99.90;;;;;;5099568;28;20036;-52
2021/12/11 12:50:50;;;;;;;37.42;21.27;;;2.40;99.90;;;;;;5096841;28;20052;-50
2021/12/11 12:53:16;;;;;;;36.55;20.45;;;2.30;99.90;;;;;;5078840;28;20083;-52
2021/12/11 12:55:47;;;;;;;37.25;21.75;;;2.30;99.90;;;;;;5079354;28;20040;-49